Terminal Aerodrome Forecast
Issued by NWS

Home | Current Version | Previous Version | Text Only | Print | Product List | Glossary On
Versions: 1 2 3 4 5 6 7 8 9 10 11 12 13 14 15 16 17 18 19 20 21 22 23 24 25 26
260
FTUS43 KDLH 030544
TAFHYR
TAF
KHYR 030544Z 0306/0406 VRB03KT P6SM OVC015
     FM030800 21003KT P6SM OVC008
     FM031600 21004KT P6SM OVC015
     FM032000 19004KT P6SM BKN025
     FM040200 17003KT P6SM SCT025 BKN040=

USA.gov is the U.S. government's official web portal to all federal, state and local government web resources and services.